sensor_id;sensor_type;location;lat;lon;timestamp;P1;durP1;ratioP1;P2;durP2;ratioP2
6531;SDS011;3299;42.004;24.868;2023-04-25T00:01:02;3.10;;;2.90;;
6531;SDS011;3299;42.004;24.868;2023-04-25T00:03:29;3.05;;;2.85;;
6531;SDS011;3299;42.004;24.868;2023-04-25T00:05:55;3.40;;;2.67;;
6531;SDS011;3299;42.004;24.868;2023-04-25T00:08:21;2.90;;;2.70;;
6531;SDS011;3299;42.004;24.868;2023-04-25T00:10:47;3.67;;;3.47;;
6531;SDS011;3299;42.004;24.868;2023-04-25T00:13:14;4.95;;;4.65;;
6531;SDS011;3299;42.004;24.868;2023-04-25T00:15:42;5.82;;;4.95;;
6531;SDS011;3299;42.004;24.868;2023-04-25T00:18:08;6.70;;;4.88;;
6531;SDS011;3299;42.004;24.868;2023-04-25T00:20:34;5.03;;;4.53;;
6531;SDS011;3299;42.004;24.868;2023-04-25T00:23:00;4.07;;;3.80;;
6531;SDS011;3299;42.004;24.868;2023-04-25T00:25:25;4.57;;;4.18;;
6531;SDS011;3299;42.004;24.868;2023-04-25T00:27:51;4.38;;;3.70;;
6531;SDS011;3299;42.004;24.868;2023-04-25T00:30:16;3.33;;;3.03;;
6531;SDS011;3299;42.004;24.868;2023-04-25T00:32:42;1.80;;;1.70;;
6531;SDS011;3299;42.004;24.868;2023-04-25T00:35:08;1.55;;;1.30;;
6531;SDS011;3299;42.004;24.868;2023-04-25T00:37:34;1.00;;;0.90;;
6531;SDS011;3299;42.004;24.868;2023-04-25T00:40:00;1.10;;;1.10;;
6531;SDS011;3299;42.004;24.868;2023-04-25T00:42:25;0.70;;;0.70;;
6531;SDS011;3299;42.004;24.868;2023-04-25T00:44:51;1.00;;;1.00;;
6531;SDS011;3299;42.004;24.868;2023-04-25T00:47:17;0.95;;;0.95;;
6531;SDS011;3299;42.004;24.868;2023-04-25T00:49:43;0.70;;;0.70;;
6531;SDS011;3299;42.004;24.868;2023-04-25T00:52:09;1.00;;;1.00;;
6531;SDS011;3299;42.004;24.868;2023-04-25T00:54:35;0.93;;;0.93;;
6531;SDS011;3299;42.004;24.868;2023-04-25T00:57:00;2.10;;;1.25;;
6531;SDS011;3299;42.004;24.868;2023-04-25T00:59:28;2.85;;;2.35;;
6531;SDS011;3299;42.004;24.868;2023-04-25T01:01:55;2.70;;;2.50;;
6531;SDS011;3299;42.004;24.868;2023-04-25T01:04:21;2.90;;;2.70;;
6531;SDS011;3299;42.004;24.868;2023-04-25T01:06:46;3.65;;;3.35;;
6531;SDS011;3299;42.004;24.868;2023-04-25T01:09:13;3.63;;;3.42;;
6531;SDS011;3299;42.004;24.868;2023-04-25T01:11:38;3.50;;;3.30;;
6531;SDS011;3299;42.004;24.868;2023-04-25T01:14:05;4.75;;;3.28;;
6531;SDS011;3299;42.004;24.868;2023-04-25T01:16:31;3.72;;;3.42;;
6531;SDS011;3299;42.004;24.868;2023-04-25T01:18:56;3.90;;;3.60;;
6531;SDS011;3299;42.004;24.868;2023-04-25T01:21:22;4.20;;;3.47;;
6531;SDS011;3299;42.004;24.868;2023-04-25T01:23:48;4.07;;;3.63;;
6531;SDS011;3299;42.004;24.868;2023-04-25T01:26:13;4.80;;;3.42;;
6531;SDS011;3299;42.004;24.868;2023-04-25T01:28:39;3.75;;;3.53;;
6531;SDS011;3299;42.004;24.868;2023-04-25T01:31:08;4.38;;;4.05;;
6531;SDS011;3299;42.004;24.868;2023-04-25T01:33:34;12.93;;;9.95;;
6531;SDS011;3299;42.004;24.868;2023-04-25T01:35:59;15.95;;;12.25;;
6531;SDS011;3299;42.004;24.868;2023-04-25T01:38:25;14.90;;;12.07;;
6531;SDS011;3299;42.004;24.868;2023-04-25T01:40:50;19.40;;;12.90;;
6531;SDS011;3299;42.004;24.868;2023-04-25T01:43:17;13.18;;;10.38;;
6531;SDS011;3299;42.004;24.868;2023-04-25T01:45:42;16.25;;;10.93;;
6531;SDS011;3299;42.004;24.868;2023-04-25T01:48:09;13.77;;;10.65;;
6531;SDS011;3299;42.004;24.868;2023-04-25T01:50:37;14.27;;;12.00;;
6531;SDS011;3299;42.004;24.868;2023-04-25T01:53:03;13.40;;;11.32;;
6531;SDS011;3299;42.004;24.868;2023-04-25T01:55:29;15.68;;;11.73;;
6531;SDS011;3299;42.004;24.868;2023-04-25T01:57:55;15.80;;;11.95;;
6531;SDS011;3299;42.004;24.868;2023-04-25T02:00:20;15.32;;;12.13;;
6531;SDS011;3299;42.004;24.868;2023-04-25T02:02:46;22.30;;;14.65;;
6531;SDS011;3299;42.004;24.868;2023-04-25T02:05:11;23.15;;;16.42;;
6531;SDS011;3299;42.004;24.868;2023-04-25T02:07:36;24.48;;;16.10;;
6531;SDS011;3299;42.004;24.868;2023-04-25T02:10:02;23.67;;;15.80;;
6531;SDS011;3299;42.004;24.868;2023-04-25T02:12:28;22.83;;;15.50;;
6531;SDS011;3299;42.004;24.868;2023-04-25T02:14:54;24.23;;;16.05;;
6531;SDS011;3299;42.004;24.868;2023-04-25T02:17:19;28.35;;;17.80;;
6531;SDS011;3299;42.004;24.868;2023-04-25T02:19:46;27.27;;;16.33;;
6531;SDS011;3299;42.004;24.868;2023-04-25T02:22:12;23.83;;;16.50;;
6531;SDS011;3299;42.004;24.868;2023-04-25T02:24:38;22.13;;;15.38;;
6531;SDS011;3299;42.004;24.868;2023-04-25T02:27:03;22.17;;;14.60;;
6531;SDS011;3299;42.004;24.868;2023-04-25T02:29:29;21.20;;;13.27;;
6531;SDS011;3299;42.004;24.868;2023-04-25T02:31:54;19.27;;;13.15;;
6531;SDS011;3299;42.004;24.868;2023-04-25T02:34:20;17.30;;;12.02;;
6531;SDS011;3299;42.004;24.868;2023-04-25T02:36:46;21.80;;;13.82;;
6531;SDS011;3299;42.004;24.868;2023-04-25T02:39:11;20.20;;;12.52;;
6531;SDS011;3299;42.004;24.868;2023-04-25T02:41:36;21.10;;;14.07;;
6531;SDS011;3299;42.004;24.868;2023-04-25T02:44:02;21.77;;;15.02;;
6531;SDS011;3299;42.004;24.868;2023-04-25T02:46:27;23.13;;;14.75;;
6531;SDS011;3299;42.004;24.868;2023-04-25T02:48:53;24.38;;;14.07;;
6531;SDS011;3299;42.004;24.868;2023-04-25T02:51:18;21.33;;;14.20;;
6531;SDS011;3299;42.004;24.868;2023-04-25T02:53:43;22.17;;;13.95;;
6531;SDS011;3299;42.004;24.868;2023-04-25T02:56:09;15.45;;;9.55;;
6531;SDS011;3299;42.004;24.868;2023-04-25T02:58:34;18.70;;;10.98;;
6531;SDS011;3299;42.004;24.868;2023-04-25T03:01:00;19.98;;;12.23;;
6531;SDS011;3299;42.004;24.868;2023-04-25T03:03:25;16.35;;;11.43;;
6531;SDS011;3299;42.004;24.868;2023-04-25T03:05:51;14.75;;;10.88;;
6531;SDS011;3299;42.004;24.868;2023-04-25T03:08:17;15.65;;;10.93;;
6531;SDS011;3299;42.004;24.868;2023-04-25T03:10:43;12.57;;;9.70;;
6531;SDS011;3299;42.004;24.868;2023-04-25T03:13:09;14.77;;;9.95;;
6531;SDS011;3299;42.004;24.868;2023-04-25T03:15:35;13.55;;;9.05;;
6531;SDS011;3299;42.004;24.868;2023-04-25T03:18:01;14.15;;;8.60;;
6531;SDS011;3299;42.004;24.868;2023-04-25T03:20:27;11.32;;;8.55;;
6531;SDS011;3299;42.004;24.868;2023-04-25T03:22:55;13.10;;;9.05;;
6531;SDS011;3299;42.004;24.868;2023-04-25T03:25:21;12.23;;;9.80;;
6531;SDS011;3299;42.004;24.868;2023-04-25T03:27:46;9.48;;;7.38;;
6531;SDS011;3299;42.004;24.868;2023-04-25T03:30:12;11.05;;;6.72;;
6531;SDS011;3299;42.004;24.868;2023-04-25T03:32:37;7.68;;;5.70;;
6531;SDS011;3299;42.004;24.868;2023-04-25T03:35:02;8.13;;;6.00;;
6531;SDS011;3299;42.004;24.868;2023-04-25T03:37:28;7.70;;;6.53;;
6531;SDS011;3299;42.004;24.868;2023-04-25T03:39:54;8.15;;;6.03;;
6531;SDS011;3299;42.004;24.868;2023-04-25T03:42:19;8.75;;;6.57;;
6531;SDS011;3299;42.004;24.868;2023-04-25T03:44:47;8.45;;;6.43;;
6531;SDS011;3299;42.004;24.868;2023-04-25T03:47:13;7.50;;;5.95;;
6531;SDS011;3299;42.004;24.868;2023-04-25T03:49:38;7.05;;;4.90;;
6531;SDS011;3299;42.004;24.868;2023-04-25T03:52:06;6.03;;;5.28;;
6531;SDS011;3299;42.004;24.868;2023-04-25T03:54:32;6.10;;;5.10;;
6531;SDS011;3299;42.004;24.868;2023-04-25T03:56:57;7.88;;;5.22;;
6531;SDS011;3299;42.004;24.868;2023-04-25T03:59:23;6.93;;;5.28;;
6531;SDS011;3299;42.004;24.868;2023-04-25T04:01:49;7.10;;;4.53;;
6531;SDS011;3299;42.004;24.868;2023-04-25T04:04:15;5.25;;;4.10;;
6531;SDS011;3299;42.004;24.868;2023-04-25T04:06:40;3.20;;;2.90;;
6531;SDS011;3299;42.004;24.868;2023-04-25T04:09:07;2.50;;;2.40;;
6531;SDS011;3299;42.004;24.868;2023-04-25T04:11:35;2.40;;;1.73;;
6531;SDS011;3299;42.004;24.868;2023-04-25T04:14:03;2.10;;;2.00;;
6531;SDS011;3299;42.004;24.868;2023-04-25T04:16:30;2.20;;;2.00;;
6531;SDS011;3299;42.004;24.868;2023-04-25T04:18:55;2.35;;;1.75;;
6531;SDS011;3299;42.004;24.868;2023-04-25T04:21:21;2.17;;;1.98;;
6531;SDS011;3299;42.004;24.868;2023-04-25T04:23:46;1.92;;;1.83;;
6531;SDS011;3299;42.004;24.868;2023-04-25T04:26:13;2.60;;;2.00;;
6531;SDS011;3299;42.004;24.868;2023-04-25T04:28:40;1.70;;;1.60;;
6531;SDS011;3299;42.004;24.868;2023-04-25T04:31:05;2.05;;;1.85;;
6531;SDS011;3299;42.004;24.868;2023-04-25T04:33:32;1.58;;;1.48;;
6531;SDS011;3299;42.004;24.868;2023-04-25T04:35:57;1.98;;;1.70;;
6531;SDS011;3299;42.004;24.868;2023-04-25T04:38:23;2.30;;;1.33;;
6531;SDS011;3299;42.004;24.868;2023-04-25T04:40:50;1.52;;;1.52;;
6531;SDS011;3299;42.004;24.868;2023-04-25T04:43:15;1.70;;;1.60;;
6531;SDS011;3299;42.004;24.868;2023-04-25T04:45:42;1.77;;;1.67;;
6531;SDS011;3299;42.004;24.868;2023-04-25T04:48:08;2.38;;;1.77;;
6531;SDS011;3299;42.004;24.868;2023-04-25T04:50:33;2.25;;;1.73;;
6531;SDS011;3299;42.004;24.868;2023-04-25T04:53:00;1.80;;;1.70;;
6531;SDS011;3299;42.004;24.868;2023-04-25T04:55:27;1.45;;;1.35;;
6531;SDS011;3299;42.004;24.868;2023-04-25T04:57:52;1.75;;;1.65;;
6531;SDS011;3299;42.004;24.868;2023-04-25T05:00:17;1.70;;;1.60;;
6531;SDS011;3299;42.004;24.868;2023-04-25T05:02:43;2.35;;;1.75;;
6531;SDS011;3299;42.004;24.868;2023-04-25T05:05:08;1.83;;;1.73;;
6531;SDS011;3299;42.004;24.868;2023-04-25T05:07:34;2.00;;;1.90;;
6531;SDS011;3299;42.004;24.868;2023-04-25T05:09:59;2.28;;;2.13;;
6531;SDS011;3299;42.004;24.868;2023-04-25T05:12:25;1.95;;;1.85;;
6531;SDS011;3299;42.004;24.868;2023-04-25T05:14:50;2.50;;;2.13;;
6531;SDS011;3299;42.004;24.868;2023-04-25T05:17:16;3.00;;;2.05;;
6531;SDS011;3299;42.004;24.868;2023-04-25T05:19:41;2.72;;;1.58;;
6531;SDS011;3299;42.004;24.868;2023-04-25T05:22:07;2.10;;;2.00;;
6531;SDS011;3299;42.004;24.868;2023-04-25T05:24:32;4.13;;;2.15;;
6531;SDS011;3299;42.004;24.868;2023-04-25T05:26:58;2.10;;;1.90;;
6531;SDS011;3299;42.004;24.868;2023-04-25T05:29:23;3.13;;;2.40;;
6531;SDS011;3299;42.004;24.868;2023-04-25T05:31:49;1.80;;;1.70;;
6531;SDS011;3299;42.004;24.868;2023-04-25T05:34:14;2.58;;;2.38;;
6531;SDS011;3299;42.004;24.868;2023-04-25T05:36:41;3.70;;;1.63;;
6531;SDS011;3299;42.004;24.868;2023-04-25T05:39:07;1.75;;;1.65;;
6531;SDS011;3299;42.004;24.868;2023-04-25T05:41:33;1.80;;;1.70;;
6531;SDS011;3299;42.004;24.868;2023-04-25T05:43:59;2.35;;;2.22;;
6531;SDS011;3299;42.004;24.868;2023-04-25T05:46:24;4.78;;;2.92;;
6531;SDS011;3299;42.004;24.868;2023-04-25T05:48:50;4.90;;;3.08;;
6531;SDS011;3299;42.004;24.868;2023-04-25T05:51:15;5.25;;;3.03;;
6531;SDS011;3299;42.004;24.868;2023-04-25T05:53:41;5.40;;;3.10;;
6531;SDS011;3299;42.004;24.868;2023-04-25T05:56:07;6.88;;;4.03;;
6531;SDS011;3299;42.004;24.868;2023-04-25T05:58:33;5.03;;;4.53;;
6531;SDS011;3299;42.004;24.868;2023-04-25T06:00:58;6.28;;;4.05;;
6531;SDS011;3299;42.004;24.868;2023-04-25T06:03:24;5.63;;;4.20;;
6531;SDS011;3299;42.004;24.868;2023-04-25T06:05:49;6.63;;;4.25;;
6531;SDS011;3299;42.004;24.868;2023-04-25T06:08:15;8.13;;;4.30;;
6531;SDS011;3299;42.004;24.868;2023-04-25T06:10:40;5.25;;;4.53;;
6531;SDS011;3299;42.004;24.868;2023-04-25T06:13:06;6.13;;;4.65;;
6531;SDS011;3299;42.004;24.868;2023-04-25T06:15:31;7.90;;;4.68;;
6531;SDS011;3299;42.004;24.868;2023-04-25T06:17:57;4.10;;;3.80;;
6531;SDS011;3299;42.004;24.868;2023-04-25T06:20:23;6.35;;;3.65;;
6531;SDS011;3299;42.004;24.868;2023-04-25T06:22:49;4.40;;;4.00;;
6531;SDS011;3299;42.004;24.868;2023-04-25T06:25:15;5.30;;;3.90;;
6531;SDS011;3299;42.004;24.868;2023-04-25T06:27:41;5.70;;;4.07;;
6531;SDS011;3299;42.004;24.868;2023-04-25T06:30:06;5.35;;;3.88;;
6531;SDS011;3299;42.004;24.868;2023-04-25T06:32:32;6.13;;;4.47;;
6531;SDS011;3299;42.004;24.868;2023-04-25T06:34:59;6.80;;;5.50;;
6531;SDS011;3299;42.004;24.868;2023-04-25T06:37:25;7.53;;;6.75;;
6531;SDS011;3299;42.004;24.868;2023-04-25T06:39:50;4.97;;;4.55;;
6531;SDS011;3299;42.004;24.868;2023-04-25T06:42:15;5.50;;;5.00;;
6531;SDS011;3299;42.004;24.868;2023-04-25T06:44:41;7.85;;;5.47;;
6531;SDS011;3299;42.004;24.868;2023-04-25T06:47:06;7.95;;;5.85;;
6531;SDS011;3299;42.004;24.868;2023-04-25T06:49:32;7.18;;;5.82;;
6531;SDS011;3299;42.004;24.868;2023-04-25T06:51:57;7.80;;;5.57;;
6531;SDS011;3299;42.004;24.868;2023-04-25T06:54:22;8.32;;;6.97;;
6531;SDS011;3299;42.004;24.868;2023-04-25T06:56:49;7.32;;;6.63;;
6531;SDS011;3299;42.004;24.868;2023-04-25T06:59:15;5.95;;;5.35;;
6531;SDS011;3299;42.004;24.868;2023-04-25T07:01:40;5.78;;;5.10;;
6531;SDS011;3299;42.004;24.868;2023-04-25T07:04:06;8.30;;;5.05;;
6531;SDS011;3299;42.004;24.868;2023-04-25T07:06:31;5.35;;;4.10;;
6531;SDS011;3299;42.004;24.868;2023-04-25T07:08:57;6.65;;;5.95;;
6531;SDS011;3299;42.004;24.868;2023-04-25T07:11:22;6.15;;;5.45;;
6531;SDS011;3299;42.004;24.868;2023-04-25T07:13:48;4.45;;;4.05;;
6531;SDS011;3299;42.004;24.868;2023-04-25T07:16:13;6.90;;;6.30;;
6531;SDS011;3299;42.004;24.868;2023-04-25T07:18:39;6.88;;;5.05;;
6531;SDS011;3299;42.004;24.868;2023-04-25T07:21:04;5.85;;;5.22;;
6531;SDS011;3299;42.004;24.868;2023-04-25T07:23:29;4.22;;;3.92;;
6531;SDS011;3299;42.004;24.868;2023-04-25T07:25:55;4.90;;;4.30;;
6531;SDS011;3299;42.004;24.868;2023-04-25T07:28:21;4.22;;;3.92;;
6531;SDS011;3299;42.004;24.868;2023-04-25T07:30:46;8.93;;;6.82;;
6531;SDS011;3299;42.004;24.868;2023-04-25T07:33:12;5.40;;;3.95;;
6531;SDS011;3299;42.004;24.868;2023-04-25T07:35:37;4.03;;;3.72;;
6531;SDS011;3299;42.004;24.868;2023-04-25T07:38:03;3.58;;;3.38;;
6531;SDS011;3299;42.004;24.868;2023-04-25T07:40:28;3.10;;;2.80;;
6531;SDS011;3299;42.004;24.868;2023-04-25T07:42:54;3.10;;;2.90;;
6531;SDS011;3299;42.004;24.868;2023-04-25T07:45:19;4.50;;;3.60;;
6531;SDS011;3299;42.004;24.868;2023-04-25T07:47:45;4.28;;;3.90;;
6531;SDS011;3299;42.004;24.868;2023-04-25T07:50:10;4.05;;;3.25;;
6531;SDS011;3299;42.004;24.868;2023-04-25T07:52:36;3.78;;;3.40;;
6531;SDS011;3299;42.004;24.868;2023-04-25T07:55:01;5.22;;;4.07;;
6531;SDS011;3299;42.004;24.868;2023-04-25T07:57:26;4.22;;;3.88;;
6531;SDS011;3299;42.004;24.868;2023-04-25T07:59:52;4.55;;;4.15;;
6531;SDS011;3299;42.004;24.868;2023-04-25T08:02:17;5.30;;;4.10;;
6531;SDS011;3299;42.004;24.868;2023-04-25T08:04:43;4.07;;;3.67;;
6531;SDS011;3299;42.004;24.868;2023-04-25T08:07:08;6.53;;;4.05;;
6531;SDS011;3299;42.004;24.868;2023-04-25T08:09:34;3.88;;;3.58;;
6531;SDS011;3299;42.004;24.868;2023-04-25T08:12:01;4.95;;;4.55;;
6531;SDS011;3299;42.004;24.868;2023-04-25T08:14:27;8.52;;;5.03;;
6531;SDS011;3299;42.004;24.868;2023-04-25T08:16:56;5.70;;;4.82;;
6531;SDS011;3299;42.004;24.868;2023-04-25T08:19:21;5.88;;;4.50;;
6531;SDS011;3299;42.004;24.868;2023-04-25T08:21:47;5.55;;;4.38;;
6531;SDS011;3299;42.004;24.868;2023-04-25T08:24:12;4.95;;;4.55;;
6531;SDS011;3299;42.004;24.868;2023-04-25T08:26:37;4.93;;;4.47;;
6531;SDS011;3299;42.004;24.868;2023-04-25T08:29:04;7.30;;;5.25;;
6531;SDS011;3299;42.004;24.868;2023-04-25T08:31:30;5.38;;;4.88;;
6531;SDS011;3299;42.004;24.868;2023-04-25T08:33:55;5.53;;;5.00;;
6531;SDS011;3299;42.004;24.868;2023-04-25T08:36:21;6.72;;;4.82;;
6531;SDS011;3299;42.004;24.868;2023-04-25T08:38:46;5.90;;;5.40;;
6531;SDS011;3299;42.004;24.868;2023-04-25T08:41:12;8.18;;;5.10;;
6531;SDS011;3299;42.004;24.868;2023-04-25T08:43:39;6.18;;;4.90;;
6531;SDS011;3299;42.004;24.868;2023-04-25T08:46:07;6.25;;;5.00;;
6531;SDS011;3299;42.004;24.868;2023-04-25T08:48:33;5.93;;;4.90;;
6531;SDS011;3299;42.004;24.868;2023-04-25T08:51:01;5.85;;;5.35;;
6531;SDS011;3299;42.004;24.868;2023-04-25T08:53:32;6.10;;;5.32;;
6531;SDS011;3299;42.004;24.868;2023-04-25T08:55:59;6.22;;;5.57;;
6531;SDS011;3299;42.004;24.868;2023-04-25T08:58:27;4.82;;;4.43;;
6531;SDS011;3299;42.004;24.868;2023-04-25T09:00:56;4.70;;;4.28;;
6531;SDS011;3299;42.004;24.868;2023-04-25T09:03:22;6.82;;;4.85;;
6531;SDS011;3299;42.004;24.868;2023-04-25T09:05:47;9.30;;;5.13;;
6531;SDS011;3299;42.004;24.868;2023-04-25T09:08:13;7.20;;;5.28;;
6531;SDS011;3299;42.004;24.868;2023-04-25T09:10:38;5.57;;;5.00;;
6531;SDS011;3299;42.004;24.868;2023-04-25T09:13:06;5.22;;;4.68;;
6531;SDS011;3299;42.004;24.868;2023-04-25T09:15:33;6.20;;;5.38;;
6531;SDS011;3299;42.004;24.868;2023-04-25T09:18:13;6.63;;;5.25;;
6531;SDS011;3299;42.004;24.868;2023-04-25T09:20:42;5.90;;;5.35;;
6531;SDS011;3299;42.004;24.868;2023-04-25T09:23:08;8.25;;;6.53;;
6531;SDS011;3299;42.004;24.868;2023-04-25T09:25:36;9.45;;;6.60;;
6531;SDS011;3299;42.004;24.868;2023-04-25T09:28:05;12.68;;;7.35;;
6531;SDS011;3299;42.004;24.868;2023-04-25T09:30:34;8.52;;;7.32;;
6531;SDS011;3299;42.004;24.868;2023-04-25T09:33:04;9.20;;;7.30;;
6531;SDS011;3299;42.004;24.868;2023-04-25T09:35:37;8.68;;;7.70;;
6531;SDS011;3299;42.004;24.868;2023-04-25T09:38:09;8.40;;;6.85;;
6531;SDS011;3299;42.004;24.868;2023-04-25T09:40:41;11.40;;;6.95;;
6531;SDS011;3299;42.004;24.868;2023-04-25T09:43:25;9.15;;;7.50;;
6531;SDS011;3299;42.004;24.868;2023-04-25T09:45:52;7.60;;;6.90;;
6531;SDS011;3299;42.004;24.868;2023-04-25T09:48:21;8.90;;;7.55;;
6531;SDS011;3299;42.004;24.868;2023-04-25T09:51:03;8.05;;;7.05;;
6531;SDS011;3299;42.004;24.868;2023-04-25T09:53:39;9.38;;;7.35;;
6531;SDS011;3299;42.004;24.868;2023-04-25T09:56:07;7.97;;;6.63;;
6531;SDS011;3299;42.004;24.868;2023-04-25T09:58:34;7.75;;;7.05;;
6531;SDS011;3299;42.004;24.868;2023-04-25T10:01:01;8.48;;;5.70;;
6531;SDS011;3299;42.004;24.868;2023-04-25T10:03:32;5.00;;;4.60;;
6531;SDS011;3299;42.004;24.868;2023-04-25T10:06:00;5.63;;;5.07;;
6531;SDS011;3299;42.004;24.868;2023-04-25T10:08:31;6.80;;;5.53;;
6531;SDS011;3299;42.004;24.868;2023-04-25T10:10:59;6.90;;;5.47;;
6531;SDS011;3299;42.004;24.868;2023-04-25T10:13:27;6.30;;;5.25;;
6531;SDS011;3299;42.004;24.868;2023-04-25T10:15:54;4.72;;;4.43;;
6531;SDS011;3299;42.004;24.868;2023-04-25T10:18:22;5.63;;;5.22;;
6531;SDS011;3299;42.004;24.868;2023-04-25T10:20:49;5.43;;;4.93;;
6531;SDS011;3299;42.004;24.868;2023-04-25T10:23:15;5.32;;;4.65;;
6531;SDS011;3299;42.004;24.868;2023-04-25T10:25:42;4.55;;;4.15;;
6531;SDS011;3299;42.004;24.868;2023-04-25T10:28:08;4.63;;;4.25;;
6531;SDS011;3299;42.004;24.868;2023-04-25T10:30:33;5.90;;;4.90;;
6531;SDS011;3299;42.004;24.868;2023-04-25T10:32:59;6.57;;;5.05;;
6531;SDS011;3299;42.004;24.868;2023-04-25T10:35:28;5.18;;;4.78;;
6531;SDS011;3299;42.004;24.868;2023-04-25T10:38:10;4.65;;;4.25;;
6531;SDS011;3299;42.004;24.868;2023-04-25T10:40:38;3.83;;;3.53;;
6531;SDS011;3299;42.004;24.868;2023-04-25T10:46:02;3.30;;;3.10;;
6531;SDS011;3299;42.004;24.868;2023-04-25T10:48:37;2.60;;;2.40;;
6531;SDS011;3299;42.004;24.868;2023-04-25T10:51:12;2.50;;;2.30;;
6531;SDS011;3299;42.004;24.868;2023-04-25T10:53:45;2.88;;;2.60;;
6531;SDS011;3299;42.004;24.868;2023-04-25T10:56:21;2.70;;;2.20;;
6531;SDS011;3299;42.004;24.868;2023-04-25T10:58:48;3.15;;;2.65;;
6531;SDS011;3299;42.004;24.868;2023-04-25T11:01:14;3.20;;;2.28;;
6531;SDS011;3299;42.004;24.868;2023-04-25T11:03:49;2.60;;;2.28;;
6531;SDS011;3299;42.004;24.868;2023-04-25T11:06:23;5.43;;;2.83;;
6531;SDS011;3299;42.004;24.868;2023-04-25T11:08:56;2.72;;;2.53;;
6531;SDS011;3299;42.004;24.868;2023-04-25T11:11:22;3.20;;;3.00;;
6531;SDS011;3299;42.004;24.868;2023-04-25T11:13:48;6.85;;;4.63;;
6531;SDS011;3299;42.004;24.868;2023-04-25T11:16:14;3.00;;;2.72;;
6531;SDS011;3299;42.004;24.868;2023-04-25T11:18:43;3.80;;;2.95;;
6531;SDS011;3299;42.004;24.868;2023-04-25T11:21:09;4.40;;;3.28;;
6531;SDS011;3299;42.004;24.868;2023-04-25T11:23:35;5.15;;;3.45;;
6531;SDS011;3299;42.004;24.868;2023-04-25T11:26:01;3.70;;;3.47;;
6531;SDS011;3299;42.004;24.868;2023-04-25T11:28:28;3.45;;;2.90;;
6531;SDS011;3299;42.004;24.868;2023-04-25T11:30:53;3.35;;;3.05;;
6531;SDS011;3299;42.004;24.868;2023-04-25T11:33:22;3.05;;;2.85;;
6531;SDS011;3299;42.004;24.868;2023-04-25T11:35:49;3.35;;;2.90;;
6531;SDS011;3299;42.004;24.868;2023-04-25T11:38:14;2.80;;;2.70;;
6531;SDS011;3299;42.004;24.868;2023-04-25T11:40:40;3.05;;;2.85;;
6531;SDS011;3299;42.004;24.868;2023-04-25T11:43:06;2.28;;;2.17;;
6531;SDS011;3299;42.004;24.868;2023-04-25T11:45:32;3.45;;;2.97;;
6531;SDS011;3299;42.004;24.868;2023-04-25T11:47:57;3.00;;;2.70;;
6531;SDS011;3299;42.004;24.868;2023-04-25T11:50:22;3.75;;;3.45;;
6531;SDS011;3299;42.004;24.868;2023-04-25T11:52:48;2.70;;;2.50;;
6531;SDS011;3299;42.004;24.868;2023-04-25T11:55:17;3.65;;;2.38;;
6531;SDS011;3299;42.004;24.868;2023-04-25T11:57:45;2.70;;;2.50;;
6531;SDS011;3299;42.004;24.868;2023-04-25T12:00:16;2.45;;;2.28;;
6531;SDS011;3299;42.004;24.868;2023-04-25T12:02:44;2.60;;;2.50;;
6531;SDS011;3299;42.004;24.868;2023-04-25T12:05:20;2.20;;;2.10;;
6531;SDS011;3299;42.004;24.868;2023-04-25T12:07:48;2.70;;;2.30;;
6531;SDS011;3299;42.004;24.868;2023-04-25T12:10:14;2.60;;;2.40;;
6531;SDS011;3299;42.004;24.868;2023-04-25T12:12:41;2.80;;;2.60;;
6531;SDS011;3299;42.004;24.868;2023-04-25T12:15:12;2.30;;;2.20;;
6531;SDS011;3299;42.004;24.868;2023-04-25T12:17:44;2.78;;;2.47;;
6531;SDS011;3299;42.004;24.868;2023-04-25T12:20:18;4.20;;;2.90;;
6531;SDS011;3299;42.004;24.868;2023-04-25T12:22:46;2.10;;;2.00;;
6531;SDS011;3299;42.004;24.868;2023-04-25T12:25:20;2.25;;;2.10;;
6531;SDS011;3299;42.004;24.868;2023-04-25T12:28:12;2.90;;;2.30;;
6531;SDS011;3299;42.004;24.868;2023-04-25T12:33:37;2.10;;;2.00;;
6531;SDS011;3299;42.004;24.868;2023-04-25T12:36:04;2.80;;;2.20;;
6531;SDS011;3299;42.004;24.868;2023-04-25T12:38:38;4.22;;;2.55;;
6531;SDS011;3299;42.004;24.868;2023-04-25T12:41:05;4.22;;;2.53;;
6531;SDS011;3299;42.004;24.868;2023-04-25T12:43:31;4.60;;;2.80;;
6531;SDS011;3299;42.004;24.868;2023-04-25T12:45:57;1.75;;;1.65;;
6531;SDS011;3299;42.004;24.868;2023-04-25T12:48:22;1.90;;;1.80;;
6531;SDS011;3299;42.004;24.868;2023-04-25T12:50:49;1.90;;;1.80;;
6531;SDS011;3299;42.004;24.868;2023-04-25T12:53:19;2.60;;;1.90;;
6531;SDS011;3299;42.004;24.868;2023-04-25T12:55:46;2.78;;;1.60;;
6531;SDS011;3299;42.004;24.868;2023-04-25T12:58:12;2.00;;;1.90;;
6531;SDS011;3299;42.004;24.868;2023-04-25T13:00:42;2.40;;;2.20;;
6531;SDS011;3299;42.004;24.868;2023-04-25T13:03:08;4.60;;;2.50;;
6531;SDS011;3299;42.004;24.868;2023-04-25T13:05:34;2.58;;;2.38;;
6531;SDS011;3299;42.004;24.868;2023-04-25T13:08:00;2.20;;;2.00;;
6531;SDS011;3299;42.004;24.868;2023-04-25T13:10:26;1.77;;;1.67;;
6531;SDS011;3299;42.004;24.868;2023-04-25T13:12:51;4.63;;;2.90;;
6531;SDS011;3299;42.004;24.868;2023-04-25T13:15:17;1.80;;;1.70;;
6531;SDS011;3299;42.004;24.868;2023-04-25T13:17:42;5.88;;;3.20;;
6531;SDS011;3299;42.004;24.868;2023-04-25T13:20:08;1.67;;;1.58;;
6531;SDS011;3299;42.004;24.868;2023-04-25T13:22:35;2.50;;;2.33;;
6531;SDS011;3299;42.004;24.868;2023-04-25T13:25:02;2.25;;;1.80;;
6531;SDS011;3299;42.004;24.868;2023-04-25T13:27:28;2.58;;;1.55;;
6531;SDS011;3299;42.004;24.868;2023-04-25T13:29:53;1.92;;;1.50;;
6531;SDS011;3299;42.004;24.868;2023-04-25T13:32:19;2.53;;;2.35;;
6531;SDS011;3299;42.004;24.868;2023-04-25T13:34:45;5.20;;;1.98;;
6531;SDS011;3299;42.004;24.868;2023-04-25T13:37:10;2.25;;;2.15;;
6531;SDS011;3299;42.004;24.868;2023-04-25T13:39:36;1.90;;;1.75;;
6531;SDS011;3299;42.004;24.868;2023-04-25T13:42:01;2.05;;;1.77;;
6531;SDS011;3299;42.004;24.868;2023-04-25T13:44:27;16.50;;;11.80;;
6531;SDS011;3299;42.004;24.868;2023-04-25T13:46:52;4.15;;;3.78;;
6531;SDS011;3299;42.004;24.868;2023-04-25T13:49:17;1.15;;;1.15;;
6531;SDS011;3299;42.004;24.868;2023-04-25T13:51:43;2.58;;;2.38;;
6531;SDS011;3299;42.004;24.868;2023-04-25T13:54:08;9.88;;;2.65;;
6531;SDS011;3299;42.004;24.868;2023-04-25T13:56:34;11.25;;;3.38;;
6531;SDS011;3299;42.004;24.868;2023-04-25T13:58:59;12.18;;;3.58;;
6531;SDS011;3299;42.004;24.868;2023-04-25T14:01:26;7.57;;;2.92;;
6531;SDS011;3299;42.004;24.868;2023-04-25T14:03:52;6.40;;;3.10;;
6531;SDS011;3299;42.004;24.868;2023-04-25T14:06:18;4.63;;;2.58;;
6531;SDS011;3299;42.004;24.868;2023-04-25T14:08:48;3.50;;;2.80;;
6531;SDS011;3299;42.004;24.868;2023-04-25T14:11:14;5.18;;;2.55;;
6531;SDS011;3299;42.004;24.868;2023-04-25T14:13:39;3.38;;;2.33;;
6531;SDS011;3299;42.004;24.868;2023-04-25T14:16:05;4.32;;;2.50;;
6531;SDS011;3299;42.004;24.868;2023-04-25T14:18:30;2.60;;;2.30;;
6531;SDS011;3299;42.004;24.868;2023-04-25T14:20:56;3.40;;;2.47;;
6531;SDS011;3299;42.004;24.868;2023-04-25T14:23:21;2.55;;;2.35;;
6531;SDS011;3299;42.004;24.868;2023-04-25T14:25:47;5.40;;;2.90;;
6531;SDS011;3299;42.004;24.868;2023-04-25T14:28:12;2.63;;;2.42;;
6531;SDS011;3299;42.004;24.868;2023-04-25T14:30:38;2.63;;;2.53;;
6531;SDS011;3299;42.004;24.868;2023-04-25T14:33:03;2.70;;;2.50;;
6531;SDS011;3299;42.004;24.868;2023-04-25T14:35:29;2.13;;;2.03;;
6531;SDS011;3299;42.004;24.868;2023-04-25T14:37:54;3.13;;;2.08;;
6531;SDS011;3299;42.004;24.868;2023-04-25T14:40:20;2.22;;;2.13;;
6531;SDS011;3299;42.004;24.868;2023-04-25T14:42:47;3.33;;;2.10;;
6531;SDS011;3299;42.004;24.868;2023-04-25T14:45:13;3.00;;;2.80;;
6531;SDS011;3299;42.004;24.868;2023-04-25T14:47:39;3.45;;;2.92;;
6531;SDS011;3299;42.004;24.868;2023-04-25T14:50:05;2.05;;;1.95;;
6531;SDS011;3299;42.004;24.868;2023-04-25T14:52:32;2.42;;;2.20;;
6531;SDS011;3299;42.004;24.868;2023-04-25T14:54:57;4.85;;;3.08;;
6531;SDS011;3299;42.004;24.868;2023-04-25T14:57:24;2.55;;;2.42;;
6531;SDS011;3299;42.004;24.868;2023-04-25T14:59:51;5.82;;;2.75;;